Dear users,

Today (Monday, 6 November 2017), the phones of forecaster in MWO Zagreb 01 6259 240 and 224 will not be available from 21:00 until 23:00 due to the works. During this period you can get meteorological consultations at 099 6053931. 

Sorry for the inconvenience.

Poštovani korisnici,

Danas (ponedjeljak 6.11.2017) u razdoblju od 21:00 do 23:00 sata neće biti dostupni telefoni dežurnog prognostičara u SMB-u Zagreb 01 6259 240 i 224 zbog radova. U tom razdoblju meteorloške konzultacije možete dobiti na broju 099 6053931. Oprostite na smetnji.

Dear users,

Today (Monday, 6 November 2017), the phones of forecaster in MWO Zagreb 01 6259 240 and 224 will not be available from 21:00 until 23:00 due to the works. During this period you can get meteorological consultations at 099 6053931. 

Sorry for the inconvenience.

Poštovani korisnici,

Danas (ponedjeljak 6.11.2017) u razdoblju od 21:00 do 23:00 sata neće biti dostupni telefoni dežurnog prognostičara u SMB-u Zagreb 01 6259 240 i 224 zbog radova. U tom razdoblju meteorloške konzultacije možete dobiti na broju 099 6053931. Oprostite na smetnji.

METAR

METAR LDZA 120230Z 18012KT 120V220 CAVOK 16/06 Q1001 TEMPO 19020G30KT =
METAR LDSP 120230Z AUTO 14011KT 9999 BKN059/// 16/11 Q1012=
METAR LDDU 120230Z 14018G28KT 110V190 9999 SCT013 BKN035 15/13 Q1017 =
METAR LDZD 120230Z 15026KT 9999 FEW040 14/12 Q1008 =
METAR LDPL 120230Z AUTO 12009KT 090V150 CAVOK 14/12 Q1004=
METAR LDOS 120230Z 11009KT CAVOK 07/04 Q1005=

TAF

TAF LDZA 112325Z 1200/1300 23018KT CAVOK
                 TX18/1212Z TN06/1223Z
           TEMPO 1200/1207 23018G30KT
           BECMG 1210/1212 23008KT
           BECMG 1213/1215 32010KT
           TEMPO 1213/1218 RA
    PROB40 TEMPO 1215/1218 4000 SHRA FEW010 SCT030TCU
           BECMG 1218/1220 VRB02KT=
TAF LDSP 112325Z 1200/1300 12015KT 9999 SCT040
                 TX17/1212Z TN14/1223Z=
TAF AMD LDDU 120241Z 1202/1300 14018KT 9999 SCT015 BKN030
                     TX16/1212Z TN14/1223Z
               TEMPO 1202/1209 14020G30KT RA BKN012 OVC025=
TAF LDZD 112325Z 1200/1300 15025G35KT 9999 FEW030
                 TX17/1212Z TN12/1223Z
           BECMG 1211/1213 15012KT
           BECMG 1217/1219 VRB02KT
           TEMPO 1219/1300 RA
    PROB30 TEMPO 1219/1222 30015KT 3000 TSRA FEW020 FEW030CB BKN035=
TAF LDPL 112325Z 1200/1300 18015KT 9999 SCT030
                 TX15/1206Z TN08/1223Z
           TEMPO 1206/1221 4000 RA BKN012 OVC030
           BECMG 1208/1210 27008KT
    PROB30 TEMPO 1208/1213 SHRA FEW010 SCT025TCU OVC030
           BECMG 1213/1215 VRB02KT=
TAF LDOS 112325Z 1200/1300 18012KT CAVOK
                 TX18/1212Z TN06/1202Z
           BECMG 1215/1217 VRB02KT=
TAF AMD LDRI 111905Z 1119/1212 CNL=

SIGMET

LDZO SIGMET 7 VALID 120000/120400 LDZA-
LDZO ZAGREB FIR SEV TURB FCST WI N4553 E01852 - N4512 E01926 - N4126
E01819 - N4329 E01430 - N4519 E01302 - N4631 E01624 - N4553 E01852
SFC/FL100 STNR NC=

AIRMET

LDZO AIRMET 14 VALID 120000/120400 LDZA-
LDZO ZAGREB FIR MT OBSC FCST WI N4537 E01518 - N4343 E01644 - N4346
E01612 - N4529 E01329 - N4537 E01518 ABV 2000FT STNR NC=
LDZO AIRMET 15 VALID 120000/120400 LDZA-
LDZO ZAGREB FIR MOD ICE FCST W OF LINE N4531 E01442 - N4331 E01431
ABV FL070 STNR NC=

Ukoliko se brzina i smjer vjetra ne mogu odrediti zbog privremenog kvara sustava/indikatora,
informacija o vjetru u METAR izvješću bit će prikazana kao "/////KT".

 

         

      Politika MET podataka      

 

Disclaimer

 

In case of temporary system/sensor failure, wind speed and direction data will be represented as "/////KT" in METAR report.